createdAt,value
2023-05-25T00:01:01.984Z,101291.72
2023-05-25T00:03:33.835Z,101293.50
2023-05-25T00:06:02.385Z,101293.59
2023-05-25T00:08:30.811Z,101292.91
2023-05-25T00:10:58.918Z,101292.06
2023-05-25T00:13:27.046Z,101291.19
2023-05-25T00:15:55.706Z,101287.69
2023-05-25T00:18:25.001Z,101287.72
2023-05-25T00:20:55.121Z,101293.94
2023-05-25T00:23:23.538Z,101293.06
2023-05-25T00:25:51.570Z,101291.41
2023-05-25T00:28:19.720Z,101288.94
2023-05-25T00:30:48.156Z,101291.81
2023-05-25T00:33:16.608Z,101286.50
2023-05-25T00:35:45.409Z,101287.44
2023-05-25T00:38:17.745Z,101291.81
2023-05-25T00:40:46.685Z,101290.09
2023-05-25T00:43:15.276Z,101299.00
2023-05-25T00:45:43.582Z,101295.56
2023-05-25T00:48:12.207Z,101293.91
2023-05-25T00:50:42.351Z,101299.31
2023-05-25T00:53:12.777Z,101298.47
2023-05-25T00:55:46.751Z,101301.16
2023-05-25T00:58:17.917Z,101303.06
2023-05-25T01:00:49.481Z,101304.00
2023-05-25T01:03:22.119Z,101311.09
2023-05-25T01:05:55.266Z,101309.00
2023-05-25T01:08:25.389Z,101302.81
2023-05-25T01:10:58.206Z,101309.94
2023-05-25T01:13:26.548Z,101305.56
2023-05-25T01:15:55.380Z,101298.63
2023-05-25T01:18:23.536Z,101303.12
2023-05-25T01:20:59.882Z,101304.16
2023-05-25T01:23:33.939Z,101298.16
2023-05-25T01:26:06.792Z,101302.72
2023-05-25T01:28:41.114Z,101301.94
2023-05-25T01:31:10.325Z,101302.91
2023-05-25T01:33:39.703Z,101304.78
2023-05-25T01:36:09.174Z,101299.62
2023-05-25T01:38:38.366Z,101307.66
2023-05-25T01:41:06.727Z,101306.94
2023-05-25T01:43:34.799Z,101307.19
2023-05-25T01:46:12.227Z,101308.25
2023-05-25T01:48:53.192Z,101304.13
2023-05-25T01:51:32.350Z,101307.84
2023-05-25T01:54:04.274Z,101307.94
2023-05-25T01:56:34.621Z,101311.44
2023-05-25T01:59:04.426Z,101305.28
2023-05-25T02:01:36.574Z,101308.88
2023-05-25T02:04:05.855Z,101308.16
2023-05-25T02:06:36.883Z,101315.63
2023-05-25T02:09:07.029Z,101301.09
2023-05-25T02:11:35.027Z,101305.44
2023-05-25T02:14:03.056Z,101305.38
2023-05-25T02:16:31.623Z,101295.94
2023-05-25T02:19:01.212Z,101296.06
2023-05-25T02:21:29.416Z,101296.22
2023-05-25T02:23:59.083Z,101297.00
2023-05-25T02:26:27.569Z,101305.19
2023-05-25T02:28:56.295Z,101293.75
2023-05-25T02:31:24.299Z,101297.31
2023-05-25T02:33:52.668Z,101292.84
2023-05-25T02:36:21.187Z,101288.25
2023-05-25T02:38:52.169Z,101289.09
2023-05-25T02:41:22.338Z,101285.59
2023-05-25T02:43:50.761Z,101286.69
2023-05-25T02:46:19.036Z,101279.00
2023-05-25T02:48:48.519Z,101278.06
2023-05-25T02:51:16.637Z,101286.97
2023-05-25T02:53:44.786Z,101286.81
2023-05-25T02:56:13.288Z,101284.22
2023-05-25T02:58:42.891Z,101294.25
2023-05-25T03:01:18.298Z,101293.63
2023-05-25T03:03:47.788Z,101291.19
2023-05-25T03:06:16.070Z,101296.62
2023-05-25T03:08:44.641Z,101293.12
2023-05-25T03:11:12.925Z,101299.62
2023-05-25T03:13:42.551Z,101313.94
2023-05-25T03:16:11.013Z,101313.84
2023-05-25T03:18:39.488Z,101305.81
2023-05-25T03:21:08.065Z,101314.34
2023-05-25T03:23:36.405Z,101311.63
2023-05-25T03:26:05.038Z,101308.78
2023-05-25T03:28:33.829Z,101312.28
2023-05-25T03:31:05.220Z,101312.28
2023-05-25T03:33:34.150Z,101319.22
2023-05-25T03:36:02.562Z,101331.28
2023-05-25T03:38:31.088Z,101324.81
2023-05-25T03:41:06.309Z,101333.56
2023-05-25T03:43:34.902Z,101327.53
2023-05-25T03:46:06.411Z,101341.47
2023-05-25T03:48:41.820Z,101340.31
2023-05-25T03:51:11.696Z,101333.88
2023-05-25T03:53:40.043Z,101335.66
2023-05-25T03:56:09.178Z,101340.97
2023-05-25T03:58:38.411Z,101341.81
2023-05-25T04:01:10.402Z,101350.41
2023-05-25T04:03:38.837Z,101355.37
2023-05-25T04:06:07.343Z,101352.34
2023-05-25T04:08:35.422Z,101344.06
2023-05-25T04:11:05.646Z,101344.06
2023-05-25T04:13:36.320Z,101348.31
2023-05-25T04:16:09.557Z,101352.37
2023-05-25T04:18:37.848Z,101352.09
2023-05-25T04:21:06.254Z,101351.03
2023-05-25T04:23:34.950Z,101357.72
2023-05-25T04:26:06.046Z,101359.16
2023-05-25T04:28:34.471Z,101368.47
2023-05-25T04:31:02.622Z,101372.31
2023-05-25T04:33:32.490Z,101371.84
2023-05-25T04:36:01.022Z,101371.44
2023-05-25T04:38:30.823Z,101372.75
2023-05-25T04:41:01.985Z,101368.78
2023-05-25T04:43:30.915Z,101369.13
2023-05-25T04:45:59.770Z,101375.75
2023-05-25T04:48:29.587Z,101372.63
2023-05-25T04:51:03.019Z,101379.34
2023-05-25T04:53:32.338Z,101375.72
2023-05-25T04:56:00.666Z,101381.41
2023-05-25T04:58:29.554Z,101385.63
2023-05-25T05:00:57.870Z,101382.13
2023-05-25T05:03:26.285Z,101376.06
2023-05-25T05:05:54.589Z,101374.41
2023-05-25T05:08:24.577Z,101375.53
2023-05-25T05:10:53.240Z,101380.41
2023-05-25T05:13:21.328Z,101392.59
2023-05-25T05:15:49.404Z,101393.34
2023-05-25T05:18:17.807Z,101397.62
2023-05-25T05:20:46.099Z,101391.94
2023-05-25T05:23:14.551Z,101398.72
2023-05-25T05:25:44.507Z,101395.94
2023-05-25T05:28:12.830Z,101404.81
2023-05-25T05:30:41.059Z,101391.47
2023-05-25T05:33:09.482Z,101389.09
2023-05-25T05:35:37.900Z,101397.59
2023-05-25T05:38:06.234Z,101402.25
2023-05-25T05:40:34.806Z,101404.06
2023-05-25T05:43:04.170Z,101411.84
2023-05-25T05:45:32.263Z,101405.91
2023-05-25T05:48:00.588Z,101407.59
2023-05-25T05:50:29.237Z,101412.50
2023-05-25T05:52:57.429Z,101412.81
2023-05-25T05:55:26.419Z,101414.44
2023-05-25T05:57:54.611Z,101410.66
2023-05-25T06:00:24.710Z,101417.09
2023-05-25T06:02:53.294Z,101420.00
2023-05-25T06:05:21.888Z,101419.00
2023-05-25T06:07:50.196Z,101420.78
2023-05-25T06:10:20.045Z,101417.03
2023-05-25T06:12:48.219Z,101415.81
2023-05-25T06:15:17.538Z,101421.09
2023-05-25T06:17:47.300Z,101432.94
2023-05-25T06:20:16.674Z,101425.06
2023-05-25T06:22:44.897Z,101423.69
2023-05-25T06:25:14.070Z,101429.53
2023-05-25T06:27:42.204Z,101434.16
2023-05-25T06:30:10.959Z,101429.00
2023-05-25T06:32:39.997Z,101436.63
2023-05-25T06:35:13.336Z,101427.22
2023-05-25T06:37:41.846Z,101431.06
2023-05-25T06:40:11.379Z,101439.78
2023-05-25T06:42:39.493Z,101433.91
2023-05-25T06:45:11.103Z,101435.97
2023-05-25T06:47:39.289Z,101447.75
2023-05-25T06:50:10.474Z,101439.06
2023-05-25T06:52:38.468Z,101449.69
2023-05-25T06:55:08.508Z,101447.88
2023-05-25T06:57:36.891Z,101448.81
2023-05-25T07:00:11.601Z,101449.69
2023-05-25T07:02:40.213Z,101445.53
2023-05-25T07:05:10.171Z,101446.41
2023-05-25T07:07:38.303Z,101447.84
2023-05-25T07:10:08.007Z,101448.59
2023-05-25T07:12:36.018Z,101448.34
2023-05-25T07:15:04.181Z,101449.81
2023-05-25T07:17:32.864Z,101454.19
2023-05-25T07:20:01.035Z,101446.31
2023-05-25T07:22:30.703Z,101446.94
2023-05-25T07:24:59.023Z,101449.94
2023-05-25T07:27:27.196Z,101446.50
2023-05-25T07:29:55.307Z,101450.44
2023-05-25T07:32:23.697Z,101450.78
2023-05-25T07:34:51.780Z,101449.31
2023-05-25T07:37:19.879Z,101445.41
2023-05-25T07:39:50.558Z,101447.06
2023-05-25T07:42:21.005Z,101447.13
2023-05-25T07:44:49.810Z,101454.44
2023-05-25T07:47:17.798Z,101457.84
2023-05-25T07:49:45.969Z,101457.63
2023-05-25T07:52:14.377Z,101451.59
2023-05-25T07:54:42.422Z,101454.63
2023-05-25T07:57:12.107Z,101458.56
2023-05-25T07:59:40.442Z,101456.94
2023-05-25T08:02:08.471Z,101453.31
2023-05-25T08:04:37.509Z,101451.66
2023-05-25T08:07:05.863Z,101453.53
2023-05-25T08:09:33.959Z,101458.22
2023-05-25T08:12:24.226Z,101456.53
2023-05-25T08:14:51.871Z,101455.41
2023-05-25T08:17:20.257Z,101460.81
2023-05-25T08:19:48.476Z,101455.94
2023-05-25T08:22:16.458Z,101458.72
2023-05-25T08:24:44.725Z,101455.16
2023-05-25T08:27:12.751Z,101456.69
2023-05-25T08:29:40.811Z,101447.44
2023-05-25T08:32:10.748Z,101444.91
2023-05-25T08:34:38.731Z,101437.37
2023-05-25T08:37:06.832Z,101445.56
2023-05-25T08:39:35.178Z,101438.16
2023-05-25T08:42:03.823Z,101441.59
2023-05-25T08:44:32.309Z,101452.44
2023-05-25T08:47:06.739Z,101455.00
2023-05-25T08:49:39.603Z,101449.16
2023-05-25T08:52:11.787Z,101452.28
2023-05-25T08:54:44.175Z,101458.56
2023-05-25T08:57:18.139Z,101455.38
2023-05-25T08:59:52.978Z,101460.37
2023-05-25T09:02:32.681Z,101459.97
2023-05-25T09:05:02.848Z,101461.84
2023-05-25T09:07:32.032Z,101460.66
2023-05-25T09:10:01.915Z,101454.59
2023-05-25T09:12:31.399Z,101450.03
2023-05-25T09:14:59.708Z,101458.59
2023-05-25T09:17:28.238Z,101461.63
2023-05-25T09:19:56.591Z,101456.72
2023-05-25T09:22:26.180Z,101454.72
2023-05-25T09:24:55.084Z,101463.38
2023-05-25T09:27:24.565Z,101468.88
2023-05-25T09:29:53.162Z,101465.13
2023-05-25T09:32:21.287Z,101463.72
2023-05-25T09:34:49.828Z,101464.81
2023-05-25T09:37:19.611Z,101464.47
2023-05-25T09:39:53.192Z,101458.50
2023-05-25T09:42:21.727Z,101467.06
2023-05-25T09:44:50.596Z,101466.38
2023-05-25T09:47:18.789Z,101464.34
2023-05-25T09:49:49.434Z,101463.84
2023-05-25T09:52:17.506Z,101462.72
2023-05-25T09:54:46.998Z,101463.44
2023-05-25T09:57:17.442Z,101459.22
2023-05-25T09:59:46.186Z,101456.28
2023-05-25T10:02:14.506Z,101459.34
2023-05-25T10:04:43.009Z,101459.16
2023-05-25T10:07:11.458Z,101464.97
2023-05-25T10:09:42.278Z,101463.28
2023-05-25T10:12:11.332Z,101455.53
2023-05-25T10:14:43.955Z,101466.69
2023-05-25T10:17:15.189Z,101464.00
2023-05-25T10:19:51.598Z,101465.44
2023-05-25T10:22:22.858Z,101466.00
2023-05-25T10:24:56.690Z,101467.19
2023-05-25T10:27:27.746Z,101466.66
2023-05-25T10:30:00.904Z,101466.97
2023-05-25T10:32:30.599Z,101467.34
2023-05-25T10:35:00.539Z,101467.28
2023-05-25T10:37:29.244Z,101460.56
2023-05-25T10:39:58.978Z,101459.22
2023-05-25T10:42:27.666Z,101462.84
2023-05-25T10:44:56.530Z,101460.84
2023-05-25T10:47:26.893Z,101468.34
2023-05-25T10:49:58.089Z,101463.09
2023-05-25T10:52:30.058Z,101452.41
2023-05-25T10:54:59.320Z,101454.00
2023-05-25T10:57:28.072Z,101454.19
2023-05-25T11:00:04.424Z,101455.09
2023-05-25T11:02:55.326Z,101449.84
2023-05-25T11:05:40.284Z,101448.59
2023-05-25T11:08:10.121Z,101449.59
2023-05-25T11:10:59.895Z,101451.84
2023-05-25T11:13:38.907Z,101445.31
2023-05-25T11:16:35.913Z,101449.19
2023-05-25T11:19:15.702Z,101442.91
2023-05-25T11:21:45.490Z,101439.25
2023-05-25T11:24:15.884Z,101432.34
2023-05-25T11:26:58.016Z,101427.06
2023-05-25T11:29:27.195Z,101429.53
2023-05-25T11:31:56.724Z,101427.63
2023-05-25T11:34:26.253Z,101434.59
2023-05-25T11:36:57.751Z,101430.75
2023-05-25T11:39:25.812Z,101427.78
2023-05-25T11:41:57.054Z,101439.63
2023-05-25T11:44:30.184Z,101425.53
2023-05-25T11:47:01.741Z,101426.56
2023-05-25T11:49:31.697Z,101424.81
2023-05-25T11:51:59.898Z,101421.78
2023-05-25T11:54:29.853Z,101425.78
2023-05-25T11:56:59.895Z,101423.47
2023-05-25T11:59:30.544Z,101426.22
2023-05-25T12:02:02.046Z,101427.78
2023-05-25T12:04:34.075Z,101422.69
2023-05-25T12:07:06.279Z,101425.25
2023-05-25T12:09:36.650Z,101431.16
2023-05-25T12:12:05.371Z,101430.94
2023-05-25T12:14:36.150Z,101434.19
2023-05-25T12:17:04.939Z,101430.75
2023-05-25T12:19:34.774Z,101422.81
2023-05-25T12:22:03.845Z,101413.41
2023-05-25T12:24:32.326Z,101414.47
2023-05-25T12:27:02.377Z,101411.50
2023-05-25T12:29:30.465Z,101406.25
2023-05-25T12:32:03.584Z,101407.16
2023-05-25T12:34:31.664Z,101399.72
2023-05-25T12:37:01.612Z,101402.72
2023-05-25T12:39:38.783Z,101400.59
2023-05-25T12:42:15.233Z,101399.66
2023-05-25T12:44:44.300Z,101407.69
2023-05-25T12:47:14.392Z,101391.41
2023-05-25T12:49:44.019Z,101404.13
2023-05-25T12:52:33.166Z,101392.19
2023-05-25T12:55:20.161Z,101392.69
2023-05-25T12:57:52.456Z,101396.06
2023-05-25T13:00:22.001Z,101392.19
2023-05-25T13:02:50.964Z,101401.59
2023-05-25T13:05:20.864Z,101391.91
2023-05-25T13:07:50.880Z,101386.31
2023-05-25T13:10:19.618Z,101388.84
2023-05-25T13:12:48.460Z,101391.00
2023-05-25T13:15:21.056Z,101391.72
2023-05-25T13:17:50.486Z,101385.16
2023-05-25T13:20:19.842Z,101388.78
2023-05-25T13:22:50.694Z,101391.00
2023-05-25T13:25:22.042Z,101380.00
2023-05-25T13:27:51.946Z,101380.34
2023-05-25T13:30:22.118Z,101379.66
2023-05-25T13:32:51.916Z,101377.47
2023-05-25T13:35:34.090Z,101378.06
2023-05-25T13:38:03.603Z,101381.34
2023-05-25T13:40:32.056Z,101383.63
2023-05-25T13:43:00.175Z,101382.84
2023-05-25T13:45:28.575Z,101376.78
2023-05-25T13:47:56.915Z,101381.75
2023-05-25T13:50:25.122Z,101377.41
2023-05-25T13:52:53.188Z,101374.38
2023-05-25T13:55:24.054Z,101378.22
2023-05-25T13:57:52.906Z,101365.25
2023-05-25T14:00:21.866Z,101366.75
2023-05-25T14:02:51.904Z,101373.44
2023-05-25T14:05:20.791Z,101365.31
2023-05-25T14:07:49.351Z,101366.91
2023-05-25T14:10:17.807Z,101365.34
2023-05-25T14:12:47.901Z,101365.72
2023-05-25T14:15:18.838Z,101366.78
2023-05-25T14:17:47.459Z,101371.34
2023-05-25T14:20:22.395Z,101365.84
2023-05-25T14:22:50.684Z,101371.66
2023-05-25T14:25:19.078Z,101355.53
2023-05-25T14:27:48.484Z,101358.09
2023-05-25T14:30:17.156Z,101349.66
2023-05-25T14:32:45.318Z,101345.19
2023-05-25T14:35:13.363Z,101353.56
2023-05-25T14:37:42.222Z,101352.41
2023-05-25T14:40:11.428Z,101350.28
2023-05-25T14:42:39.444Z,101353.13
2023-05-25T14:45:11.586Z,101346.66
2023-05-25T14:47:40.797Z,101351.06
2023-05-25T14:50:09.738Z,101352.13
2023-05-25T14:52:37.880Z,101344.97
2023-05-25T14:55:06.556Z,101348.44
2023-05-25T14:57:34.821Z,101346.41
2023-05-25T15:00:03.299Z,101358.91
2023-05-25T15:02:33.118Z,101352.47
2023-05-25T15:05:01.579Z,101349.97
2023-05-25T15:07:29.676Z,101353.75
2023-05-25T15:09:57.805Z,101349.97
2023-05-25T15:12:26.035Z,101350.25
2023-05-25T15:14:54.055Z,101355.28
2023-05-25T15:17:22.024Z,101348.00
2023-05-25T15:19:51.805Z,101346.16
2023-05-25T15:22:19.915Z,101348.91
2023-05-25T15:24:48.011Z,101340.22
2023-05-25T15:27:16.256Z,101345.37
2023-05-25T15:29:44.257Z,101339.16
2023-05-25T15:32:13.740Z,101342.50
2023-05-25T15:34:42.735Z,101347.50
2023-05-25T15:37:13.155Z,101346.44
2023-05-25T15:39:41.398Z,101346.81
2023-05-25T15:42:09.456Z,101350.94
2023-05-25T15:44:37.494Z,101338.28
2023-05-25T15:47:06.633Z,101339.97
2023-05-25T15:49:36.767Z,101338.28
2023-05-25T15:52:06.573Z,101333.62
2023-05-25T15:54:36.363Z,101333.41
2023-05-25T15:57:04.635Z,101325.81
2023-05-25T15:59:32.622Z,101324.16
2023-05-25T16:02:01.004Z,101321.78
2023-05-25T16:04:29.314Z,101331.69
2023-05-25T16:06:58.497Z,101316.69
2023-05-25T16:09:27.451Z,101317.34
2023-05-25T16:11:57.090Z,101323.66
2023-05-25T16:14:25.149Z,101307.72
2023-05-25T16:16:53.263Z,101305.91
2023-05-25T16:19:21.574Z,101308.72
2023-05-25T16:21:49.729Z,101307.41
2023-05-25T16:24:17.822Z,101307.78
2023-05-25T16:26:46.081Z,101313.12
2023-05-25T16:29:15.559Z,101313.97
2023-05-25T16:31:43.577Z,101314.44
2023-05-25T16:34:11.774Z,101307.69
2023-05-25T16:36:39.752Z,101309.50
2023-05-25T16:39:08.102Z,101312.69
2023-05-25T16:41:36.414Z,101309.91
2023-05-25T16:44:04.532Z,101310.72
2023-05-25T16:46:34.129Z,101309.03
2023-05-25T16:49:02.536Z,101309.09
2023-05-25T16:51:30.727Z,101311.50
2023-05-25T16:53:58.786Z,101305.75
2023-05-25T16:56:27.223Z,101310.88
2023-05-25T16:58:55.162Z,101311.81
2023-05-25T17:01:23.227Z,101302.19
2023-05-25T17:03:53.044Z,101311.72
2023-05-25T17:06:21.163Z,101306.56
2023-05-25T17:08:49.150Z,101303.16
2023-05-25T17:11:17.518Z,101304.37
2023-05-25T17:13:45.540Z,101303.28
2023-05-25T17:16:13.586Z,101308.37
2023-05-25T17:18:42.324Z,101309.72
2023-05-25T17:21:11.928Z,101315.56
2023-05-25T17:23:39.930Z,101314.13
2023-05-25T17:26:08.202Z,101311.28
2023-05-25T17:28:36.271Z,101316.19
2023-05-25T17:31:04.397Z,101310.91
2023-05-25T17:33:32.648Z,101314.41
2023-05-25T17:36:00.813Z,101323.06
2023-05-25T17:38:30.163Z,101321.56
2023-05-25T17:40:58.581Z,101317.97
2023-05-25T17:43:26.552Z,101316.09
2023-05-25T17:45:54.699Z,101327.94
2023-05-25T17:48:23.016Z,101322.59
2023-05-25T17:50:51.006Z,101323.62
2023-05-25T17:53:19.096Z,101325.81
2023-05-25T17:55:48.897Z,101323.91
2023-05-25T17:58:17.020Z,101325.59
2023-05-25T18:00:45.137Z,101329.81
2023-05-25T18:03:13.736Z,101328.75
2023-05-25T18:05:41.902Z,101324.34
2023-05-25T18:08:09.839Z,101329.09
2023-05-25T18:10:38.211Z,101332.84
2023-05-25T18:13:07.577Z,101325.72
2023-05-25T18:15:35.629Z,101325.31
2023-05-25T18:18:05.764Z,101335.88
2023-05-25T18:20:34.573Z,101330.03
2023-05-25T18:23:03.317Z,101334.94
2023-05-25T18:25:31.600Z,101335.44
2023-05-25T18:27:59.758Z,101337.31
2023-05-25T18:30:29.240Z,101339.69
2023-05-25T18:32:57.548Z,101340.03
2023-05-25T18:35:25.693Z,101339.28
2023-05-25T18:37:53.780Z,101344.56
2023-05-25T18:40:22.157Z,101346.66
2023-05-25T18:42:50.880Z,101340.94
2023-05-25T18:45:18.932Z,101344.34
2023-05-25T18:47:48.607Z,101345.72
2023-05-25T18:50:17.062Z,101343.66
2023-05-25T18:52:46.833Z,101338.84
2023-05-25T18:55:15.485Z,101347.41
2023-05-25T18:57:43.528Z,101340.19
2023-05-25T19:00:13.073Z,101345.13
2023-05-25T19:02:42.014Z,101342.34
2023-05-25T19:05:12.258Z,101341.87
2023-05-25T19:07:54.784Z,101345.19
2023-05-25T19:10:27.583Z,101352.00
2023-05-25T19:12:55.942Z,101360.16
2023-05-25T19:15:24.065Z,101360.88
2023-05-25T19:17:52.390Z,101364.12
2023-05-25T19:20:21.948Z,101369.63
2023-05-25T19:22:50.127Z,101369.91
2023-05-25T19:25:18.475Z,101372.72
2023-05-25T19:27:46.521Z,101374.78
2023-05-25T19:30:15.872Z,101381.12
2023-05-25T19:32:44.290Z,101385.78
2023-05-25T19:35:12.691Z,101383.47
2023-05-25T19:37:42.370Z,101390.78
2023-05-25T19:40:11.242Z,101394.13
2023-05-25T19:42:39.300Z,101401.19
2023-05-25T19:45:07.886Z,101406.50
2023-05-25T19:47:36.389Z,101389.16
2023-05-25T19:50:04.985Z,101397.03
2023-05-25T19:52:33.231Z,101393.53
2023-05-25T19:55:02.841Z,101396.91
2023-05-25T19:57:30.882Z,101391.31
2023-05-25T19:59:58.905Z,101394.00
2023-05-25T20:02:27.611Z,101403.69
2023-05-25T20:04:56.041Z,101405.75
2023-05-25T20:07:24.345Z,101400.63
2023-05-25T20:09:52.493Z,101404.09
2023-05-25T20:12:22.381Z,101410.37
2023-05-25T20:14:50.496Z,101407.34
2023-05-25T20:17:18.617Z,101407.34
2023-05-25T20:19:46.816Z,101409.31
2023-05-25T20:22:14.866Z,101413.53
2023-05-25T20:24:42.941Z,101411.44
2023-05-25T20:27:11.348Z,101418.41
2023-05-25T20:29:40.733Z,101421.09
2023-05-25T20:32:08.972Z,101415.94
2023-05-25T20:34:37.395Z,101422.56
2023-05-25T20:37:05.586Z,101416.56
2023-05-25T20:39:33.754Z,101418.75
2023-05-25T20:42:02.686Z,101420.22
2023-05-25T20:44:31.870Z,101418.75
2023-05-25T20:47:01.454Z,101428.38
2023-05-25T20:49:29.903Z,101417.38
2023-05-25T20:51:57.934Z,101421.28
2023-05-25T20:54:26.245Z,101414.06
2023-05-25T20:56:54.515Z,101422.25
2023-05-25T20:59:23.480Z,101424.22
2023-05-25T21:01:51.541Z,101427.25
2023-05-25T21:04:21.681Z,101435.31
2023-05-25T21:06:49.843Z,101433.00
2023-05-25T21:09:17.972Z,101431.28
2023-05-25T21:11:46.379Z,101438.09
2023-05-25T21:14:14.519Z,101435.94
2023-05-25T21:16:42.815Z,101440.47
2023-05-25T21:19:11.509Z,101439.97
2023-05-25T21:21:40.913Z,101435.66
2023-05-25T21:24:09.004Z,101438.03
2023-05-25T21:26:37.297Z,101436.87
2023-05-25T21:29:05.375Z,101437.28
2023-05-25T21:31:33.459Z,101436.19
2023-05-25T21:34:01.925Z,101439.97
2023-05-25T21:36:30.073Z,101436.63
2023-05-25T21:38:59.438Z,101433.47
2023-05-25T21:41:27.856Z,101433.78
2023-05-25T21:43:55.938Z,101438.44
2023-05-25T21:46:24.025Z,101445.75
2023-05-25T21:48:52.408Z,101443.37
2023-05-25T21:51:20.603Z,101440.50
2023-05-25T21:53:51.885Z,101442.41
2023-05-25T21:56:21.863Z,101449.84
2023-05-25T21:58:49.962Z,101451.81
2023-05-25T22:01:19.149Z,101450.72
2023-05-25T22:03:47.872Z,101451.56
2023-05-25T22:06:16.113Z,101454.13
2023-05-25T22:08:44.268Z,101444.59
2023-05-25T22:11:12.672Z,101449.25
2023-05-25T22:13:42.235Z,101447.53
2023-05-25T22:16:10.597Z,101453.87
2023-05-25T22:18:38.844Z,101452.25
2023-05-25T22:21:07.112Z,101454.94
2023-05-25T22:23:35.222Z,101451.50
2023-05-25T22:26:05.015Z,101453.22
2023-05-25T22:28:33.032Z,101453.47
2023-05-25T22:31:02.480Z,101449.50
2023-05-25T22:33:31.189Z,101445.12
2023-05-25T22:35:59.322Z,101453.16
2023-05-25T22:38:27.261Z,101443.41
2023-05-25T22:40:55.723Z,101447.50
2023-05-25T22:43:23.746Z,101449.97
2023-05-25T22:45:54.013Z,101449.31
2023-05-25T22:48:23.806Z,101447.00
2023-05-25T22:50:51.824Z,101451.09
2023-05-25T22:53:20.111Z,101448.53
2023-05-25T22:55:49.095Z,101459.25
2023-05-25T22:58:17.401Z,101453.87
2023-05-25T23:00:45.561Z,101448.84
2023-05-25T23:03:14.199Z,101453.47
2023-05-25T23:05:44.471Z,101453.94
2023-05-25T23:08:12.582Z,101453.94
2023-05-25T23:10:40.948Z,101456.50
2023-05-25T23:13:09.016Z,101452.50
2023-05-25T23:15:40.184Z,101452.00
2023-05-25T23:18:08.661Z,101459.34
2023-05-25T23:20:36.773Z,101450.78
2023-05-25T23:23:06.137Z,101450.37
2023-05-25T23:25:34.312Z,101445.84
2023-05-25T23:28:02.795Z,101453.50
2023-05-25T23:30:30.883Z,101453.50
2023-05-25T23:33:00.046Z,101455.62
2023-05-25T23:35:28.627Z,101454.16
2023-05-25T23:37:57.726Z,101456.53
2023-05-25T23:40:27.514Z,101460.28
2023-05-25T23:42:55.803Z,101468.09
2023-05-25T23:45:23.895Z,101460.50
2023-05-25T23:47:52.314Z,101461.13
2023-05-25T23:50:20.574Z,101458.34
2023-05-25T23:52:48.819Z,101459.19
2023-05-25T23:55:17.304Z,101458.06
2023-05-25T23:57:47.042Z,101454.53
